createdAt,value
2017-09-12T00:00:21.330Z,0.00
2017-09-12T00:01:21.370Z,0.00
2017-09-12T00:02:21.411Z,0.00
2017-09-12T00:03:21.452Z,0.00
2017-09-12T00:04:21.491Z,0.00
2017-09-12T00:05:21.534Z,0.00
2017-09-12T00:06:21.573Z,0.00
2017-09-12T00:07:21.614Z,0.00
2017-09-12T00:08:21.657Z,0.00
2017-09-12T00:09:21.695Z,0.00
2017-09-12T00:10:21.735Z,0.00
2017-09-12T00:11:21.780Z,0.00
2017-09-12T00:12:21.817Z,0.00
2017-09-12T00:13:21.858Z,0.00
2017-09-12T00:14:21.899Z,0.00
2017-09-12T00:15:21.938Z,0.00
2017-09-12T00:16:22.004Z,0.00
2017-09-12T00:17:22.021Z,0.00
2017-09-12T00:18:22.061Z,0.00
2017-09-12T00:19:22.102Z,0.00
2017-09-12T00:20:22.143Z,0.00
2017-09-12T00:21:22.183Z,0.00
2017-09-12T00:22:22.225Z,0.00
2017-09-12T00:23:22.263Z,0.00
2017-09-12T00:24:22.304Z,0.00
2017-09-12T00:25:22.358Z,0.00
2017-09-12T00:26:22.386Z,0.00
2017-09-12T00:27:22.426Z,0.00
2017-09-12T00:28:22.466Z,0.00
2017-09-12T00:29:22.507Z,0.00
2017-09-12T00:30:22.549Z,0.00
2017-09-12T00:31:22.588Z,0.00
2017-09-12T00:32:22.628Z,0.00
2017-09-12T00:33:22.671Z,0.00
2017-09-12T00:34:22.711Z,0.00
2017-09-12T00:35:22.756Z,0.00
2017-09-12T00:36:22.793Z,0.00
2017-09-12T00:37:22.842Z,0.00
2017-09-12T00:38:22.873Z,0.00
2017-09-12T00:39:22.916Z,0.00
2017-09-12T00:40:22.951Z,0.00
2017-09-12T00:41:22.992Z,0.00
2017-09-12T00:42:23.037Z,0.00
2017-09-12T00:43:23.074Z,0.00
2017-09-12T00:44:23.120Z,0.00
2017-09-12T00:45:23.158Z,0.00
2017-09-12T00:46:23.199Z,0.00
2017-09-12T00:47:23.236Z,0.00
2017-09-12T00:48:23.280Z,0.00
2017-09-12T00:49:23.318Z,0.00
2017-09-12T00:50:23.360Z,0.00
2017-09-12T00:51:23.402Z,0.00
2017-09-12T00:52:23.439Z,0.00
2017-09-12T00:53:23.480Z,0.00
2017-09-12T00:54:23.525Z,0.00
2017-09-12T00:55:23.561Z,0.00
2017-09-12T00:56:23.601Z,0.00
2017-09-12T00:57:23.647Z,0.00
2017-09-12T00:58:23.683Z,0.00
2017-09-12T00:59:23.724Z,0.00
2017-09-12T01:00:23.768Z,0.00
2017-09-12T01:01:23.804Z,0.00
2017-09-12T01:02:23.846Z,0.00
2017-09-12T01:03:23.890Z,0.00
2017-09-12T01:04:23.926Z,0.00
2017-09-12T01:05:23.966Z,0.00
2017-09-12T01:06:24.009Z,0.00
2017-09-12T01:07:24.048Z,0.00
2017-09-12T01:08:24.088Z,0.00
2017-09-12T01:09:24.129Z,0.00
2017-09-12T01:10:24.168Z,0.00
2017-09-12T01:11:24.211Z,0.00
2017-09-12T01:12:24.250Z,0.00
2017-09-12T01:13:24.291Z,0.00
2017-09-12T01:14:24.331Z,0.00
2017-09-12T01:15:24.378Z,0.00
2017-09-12T01:16:24.411Z,0.00
2017-09-12T01:17:24.451Z,0.00
2017-09-12T01:18:24.492Z,0.00
2017-09-12T01:19:24.533Z,0.00
2017-09-12T01:20:24.577Z,0.00
2017-09-12T01:21:24.616Z,0.00
2017-09-12T01:22:24.655Z,0.00
2017-09-12T01:23:24.703Z,0.00
2017-09-12T01:24:24.736Z,0.00
2017-09-12T01:25:24.779Z,0.00
2017-09-12T01:26:24.822Z,0.00
2017-09-12T01:27:24.858Z,0.00
2017-09-12T01:28:24.898Z,0.00
2017-09-12T01:29:24.937Z,0.00
2017-09-12T01:30:24.982Z,0.00
2017-09-12T01:31:25.021Z,0.00
2017-09-12T01:32:25.060Z,0.00
2017-09-12T01:33:25.102Z,0.00
2017-09-12T01:34:25.142Z,0.00
2017-09-12T01:35:25.186Z,0.00
2017-09-12T01:36:25.222Z,0.00
2017-09-12T01:37:25.262Z,0.00
2017-09-12T01:38:25.303Z,0.00
2017-09-12T01:39:25.348Z,0.00
2017-09-12T01:40:25.385Z,0.00
2017-09-12T01:41:25.424Z,0.00
2017-09-12T01:42:25.465Z,0.00
2017-09-12T01:43:25.507Z,0.00
2017-09-12T01:44:25.545Z,0.00
2017-09-12T01:45:25.592Z,0.00
2017-09-12T01:46:25.629Z,0.00
2017-09-12T01:47:25.668Z,0.00
2017-09-12T01:48:25.711Z,0.00
2017-09-12T01:49:25.750Z,0.00
2017-09-12T01:50:25.790Z,0.00
2017-09-12T01:51:25.832Z,0.00
2017-09-12T01:52:25.872Z,0.00
2017-09-12T01:53:25.910Z,0.00
2017-09-12T01:54:25.950Z,0.00
2017-09-12T01:55:25.995Z,0.00
2017-09-12T01:56:26.031Z,0.00
2017-09-12T01:57:26.073Z,0.00
2017-09-12T01:58:26.118Z,0.00
2017-09-12T01:59:26.152Z,0.00
2017-09-12T02:00:26.193Z,0.00
2017-09-12T02:01:26.239Z,0.00
2017-09-12T02:02:26.273Z,0.00
2017-09-12T02:03:26.314Z,0.00
2017-09-12T02:04:26.355Z,0.00
2017-09-12T02:05:26.396Z,0.00
2017-09-12T02:06:26.436Z,0.00
2017-09-12T02:07:26.477Z,0.00
2017-09-12T02:08:26.515Z,0.00
2017-09-12T02:09:26.557Z,0.00
2017-09-12T02:10:26.597Z,0.00
2017-09-12T02:11:26.637Z,0.00
2017-09-12T02:12:26.678Z,0.00
2017-09-12T02:13:26.718Z,0.00
2017-09-12T02:14:26.759Z,0.00
2017-09-12T02:15:26.802Z,0.00
2017-09-12T02:16:26.841Z,0.00
2017-09-12T02:17:26.880Z,0.00
2017-09-12T02:18:26.922Z,0.00
2017-09-12T02:19:26.962Z,0.00
2017-09-12T02:20:27.003Z,0.00
2017-09-12T02:21:27.042Z,0.00
2017-09-12T02:22:27.082Z,0.00
2017-09-12T02:23:27.122Z,0.00
2017-09-12T02:24:27.164Z,0.00
2017-09-12T02:25:27.203Z,0.00
2017-09-12T02:26:27.244Z,0.00
2017-09-12T02:27:27.284Z,0.00
2017-09-12T02:28:27.326Z,0.00
2017-09-12T02:29:27.366Z,0.00
2017-09-12T02:30:27.405Z,0.00
2017-09-12T02:31:27.445Z,0.00
2017-09-12T02:32:27.488Z,0.00
2017-09-12T02:33:27.526Z,0.00
2017-09-12T02:34:27.567Z,0.00
2017-09-12T02:35:27.613Z,0.00
2017-09-12T02:36:27.650Z,0.00
2017-09-12T02:37:27.690Z,0.00
2017-09-12T02:38:27.729Z,0.00
2017-09-12T02:39:27.769Z,0.00
2017-09-12T02:40:27.809Z,0.00
2017-09-12T02:41:27.851Z,0.00
2017-09-12T02:42:27.892Z,0.00
2017-09-12T02:43:27.933Z,0.00
2017-09-12T02:44:27.970Z,0.00
2017-09-12T02:45:28.014Z,0.00
2017-09-12T02:46:28.052Z,0.00
2017-09-12T02:47:28.092Z,0.00
2017-09-12T02:48:28.133Z,0.00
2017-09-12T02:49:28.174Z,0.00
2017-09-12T02:50:28.214Z,0.00
2017-09-12T02:51:28.254Z,0.00
2017-09-12T02:52:28.295Z,0.00
2017-09-12T02:53:28.337Z,0.00
2017-09-12T02:54:28.375Z,0.00
2017-09-12T02:55:28.415Z,0.00
2017-09-12T02:56:28.468Z,0.00
2017-09-12T02:57:28.498Z,0.00
2017-09-12T02:58:28.537Z,0.00
2017-09-12T02:59:28.582Z,0.00
2017-09-12T03:00:28.620Z,0.00
2017-09-12T03:01:28.657Z,0.00
2017-09-12T03:02:28.702Z,0.00
2017-09-12T03:03:28.741Z,0.00
2017-09-12T03:04:28.778Z,0.00
2017-09-12T03:05:28.823Z,0.00
2017-09-12T03:06:28.863Z,0.00
2017-09-12T03:07:28.900Z,0.00
2017-09-12T03:08:28.940Z,0.00
2017-09-12T03:09:28.981Z,0.00
2017-09-12T03:10:29.021Z,0.00
2017-09-12T03:11:29.064Z,0.00
2017-09-12T03:12:29.102Z,0.00
2017-09-12T03:13:29.143Z,0.00
2017-09-12T03:14:29.183Z,0.00
2017-09-12T03:15:29.229Z,0.00
2017-09-12T03:16:29.263Z,0.00
2017-09-12T03:17:29.303Z,0.00
2017-09-12T03:18:29.344Z,0.00
2017-09-12T03:19:29.386Z,0.00
2017-09-12T03:20:29.425Z,0.00
2017-09-12T03:21:29.465Z,0.00
2017-09-12T03:22:29.505Z,0.00
2017-09-12T03:23:29.546Z,0.00
2017-09-12T03:24:29.585Z,0.00
2017-09-12T03:25:29.630Z,0.00
2017-09-12T03:26:29.667Z,0.00
2017-09-12T03:27:29.709Z,0.00
2017-09-12T03:28:29.748Z,0.00
2017-09-12T03:29:29.788Z,0.00
2017-09-12T03:30:29.832Z,0.00
2017-09-12T03:31:29.871Z,0.00
2017-09-12T03:32:29.908Z,0.00
2017-09-12T03:33:29.949Z,0.00
2017-09-12T03:34:29.993Z,0.00
2017-09-12T03:35:30.038Z,0.00
2017-09-12T03:36:30.080Z,0.00
2017-09-12T03:37:30.114Z,0.00
2017-09-12T03:38:30.150Z,0.00
2017-09-12T03:39:30.192Z,0.00
2017-09-12T03:40:30.233Z,0.00
2017-09-12T03:41:30.283Z,0.00
2017-09-12T03:42:30.314Z,0.00
2017-09-12T03:43:30.353Z,0.00
2017-09-12T03:44:30.393Z,0.00
2017-09-12T03:45:30.434Z,0.00
2017-09-12T03:46:30.474Z,0.00
2017-09-12T03:47:30.515Z,0.00
2017-09-12T03:48:30.553Z,0.00
2017-09-12T03:49:30.595Z,0.00
2017-09-12T03:50:30.635Z,0.00
2017-09-12T03:51:30.675Z,0.00
2017-09-12T03:52:30.715Z,0.00
2017-09-12T03:53:30.755Z,0.00
2017-09-12T03:54:30.796Z,0.00
2017-09-12T03:55:30.867Z,0.00
2017-09-12T03:56:30.879Z,0.00
2017-09-12T03:57:30.916Z,0.00
2017-09-12T03:58:30.963Z,0.00
2017-09-12T03:59:30.999Z,0.00
2017-09-12T04:00:31.041Z,0.00
2017-09-12T04:01:31.080Z,0.00
2017-09-12T04:02:31.122Z,0.00
2017-09-12T04:03:31.158Z,0.00
2017-09-12T04:04:31.200Z,0.00
2017-09-12T04:05:31.243Z,0.00
2017-09-12T04:06:31.282Z,0.00
2017-09-12T04:07:31.320Z,0.00
2017-09-12T04:08:31.359Z,0.00
2017-09-12T04:09:31.400Z,0.00
2017-09-12T04:10:31.440Z,0.00
2017-09-12T04:11:31.482Z,0.00
2017-09-12T04:12:31.521Z,0.00
2017-09-12T04:13:31.562Z,0.00
2017-09-12T04:14:31.603Z,0.00
2017-09-12T04:15:31.644Z,0.00
2017-09-12T04:16:31.683Z,0.00
2017-09-12T04:17:31.723Z,0.00
2017-09-12T04:18:31.762Z,0.00
2017-09-12T04:19:31.805Z,0.00
2017-09-12T04:20:31.845Z,0.00
2017-09-12T04:21:31.888Z,0.00
2017-09-12T04:22:31.925Z,0.00
2017-09-12T04:23:31.965Z,0.00
2017-09-12T04:24:32.004Z,0.00
2017-09-12T04:25:32.048Z,0.00
2017-09-12T04:26:32.165Z,0.00
2017-09-12T04:27:32.128Z,0.00
2017-09-12T04:28:32.166Z,0.00
2017-09-12T04:29:32.206Z,0.00
2017-09-12T04:30:32.247Z,0.00
2017-09-12T04:31:32.286Z,4.00
2017-09-12T04:32:32.327Z,4.00
2017-09-12T04:33:32.382Z,0.00
2017-09-12T04:34:32.407Z,0.00
2017-09-12T04:35:32.450Z,4.00
2017-09-12T04:36:32.487Z,4.00
2017-09-12T04:37:32.530Z,4.00
2017-09-12T04:38:32.568Z,0.00
2017-09-12T04:39:32.609Z,4.00
2017-09-12T04:40:32.649Z,4.00
2017-09-12T04:41:32.692Z,8.00
2017-09-12T04:42:32.731Z,4.00
2017-09-12T04:43:32.773Z,4.00
2017-09-12T04:44:32.810Z,4.00
2017-09-12T04:45:32.852Z,8.00
2017-09-12T04:46:32.892Z,8.00
2017-09-12T04:47:32.934Z,8.00
2017-09-12T04:48:32.974Z,4.00
2017-09-12T04:49:33.011Z,8.00
2017-09-12T04:50:33.052Z,8.00
2017-09-12T04:51:33.091Z,8.00
2017-09-12T04:52:33.137Z,12.00
2017-09-12T04:53:33.172Z,8.00
2017-09-12T04:54:33.213Z,8.00
2017-09-12T04:55:33.253Z,12.00
2017-09-12T04:56:33.297Z,12.00
2017-09-12T04:57:33.334Z,12.00
2017-09-12T04:58:33.373Z,12.00
2017-09-12T04:59:33.416Z,12.00
2017-09-12T05:00:33.457Z,12.00
2017-09-12T05:01:33.495Z,16.00
2017-09-12T05:02:33.536Z,16.00
2017-09-12T05:03:33.575Z,16.00
2017-09-12T05:04:33.614Z,20.00
2017-09-12T05:05:33.657Z,16.00
2017-09-12T05:06:33.696Z,20.00
2017-09-12T05:07:33.736Z,20.00
2017-09-12T05:08:33.780Z,20.00
2017-09-12T05:09:33.819Z,20.00
2017-09-12T05:10:33.974Z,20.00
2017-09-12T05:11:34.536Z,20.00
2017-09-12T05:12:33.938Z,20.00
2017-09-12T05:13:33.982Z,20.00
2017-09-12T05:14:34.052Z,24.00
2017-09-12T05:15:34.059Z,24.00
2017-09-12T05:16:34.097Z,24.00
2017-09-12T05:17:34.139Z,24.00
2017-09-12T05:18:34.181Z,24.00
2017-09-12T05:19:34.220Z,24.00
2017-09-12T05:20:34.259Z,24.00
2017-09-12T05:21:34.301Z,28.00
2017-09-12T05:22:34.340Z,28.00
2017-09-12T05:23:34.383Z,28.00
2017-09-12T05:24:34.430Z,32.00
2017-09-12T05:25:34.463Z,28.00
2017-09-12T05:26:34.504Z,36.00
2017-09-12T05:27:34.549Z,36.00
2017-09-12T05:28:34.582Z,40.00
2017-09-12T05:29:34.622Z,48.00
2017-09-12T05:30:34.664Z,52.00
2017-09-12T05:31:34.706Z,52.00
2017-09-12T05:32:34.745Z,52.00
2017-09-12T05:33:34.786Z,48.00
2017-09-12T05:34:34.854Z,48.00
2017-09-12T05:35:34.866Z,44.00
2017-09-12T05:36:34.910Z,40.00
2017-09-12T05:37:34.943Z,32.00
2017-09-12T05:38:34.987Z,36.00
2017-09-12T05:39:35.024Z,32.00
2017-09-12T05:40:35.064Z,40.00
2017-09-12T05:41:35.104Z,44.00
2017-09-12T05:42:35.145Z,56.00
2017-09-12T05:43:35.187Z,56.00
2017-09-12T05:44:35.226Z,56.00
2017-09-12T05:45:35.267Z,60.00
2017-09-12T05:46:35.312Z,64.00
2017-09-12T05:47:35.348Z,60.00
2017-09-12T05:48:35.387Z,68.00
2017-09-12T05:49:35.428Z,72.00
2017-09-12T05:50:35.467Z,68.00
2017-09-12T05:51:35.509Z,72.00
2017-09-12T05:52:35.547Z,68.00
2017-09-12T05:53:35.606Z,68.00
2017-09-12T05:54:35.634Z,60.00
2017-09-12T05:55:35.670Z,60.00
2017-09-12T05:56:35.709Z,56.00
2017-09-12T05:57:35.750Z,52.00
2017-09-12T05:58:35.793Z,52.00
2017-09-12T05:59:35.833Z,60.00
2017-09-12T06:00:35.873Z,68.00
2017-09-12T06:01:35.916Z,72.00
2017-09-12T06:02:35.952Z,72.00
2017-09-12T06:03:35.994Z,72.00
2017-09-12T06:04:36.032Z,64.00
2017-09-12T06:05:36.072Z,68.00
2017-09-12T06:06:36.115Z,76.00
2017-09-12T06:07:36.154Z,92.00
2017-09-12T06:08:36.193Z,100.00
2017-09-12T06:09:36.252Z,124.00
2017-09-12T06:10:36.295Z,136.00
2017-09-12T06:11:37.040Z,148.00
2017-09-12T06:12:36.354Z,160.00
2017-09-12T06:13:36.398Z,168.00
2017-09-12T06:14:36.475Z,172.00
2017-09-12T06:15:36.478Z,176.00
2017-09-12T06:16:36.519Z,180.00
2017-09-12T06:17:36.557Z,192.00
2017-09-12T06:18:36.599Z,192.00
2017-09-12T06:19:36.639Z,188.00
2017-09-12T06:20:36.723Z,192.00
2017-09-12T06:21:36.743Z,188.00
2017-09-12T06:22:36.764Z,180.00
2017-09-12T06:23:36.807Z,168.00
2017-09-12T06:24:36.880Z,168.00
2017-09-12T06:25:36.884Z,160.00
2017-09-12T06:26:36.927Z,156.00
2017-09-12T06:27:37.060Z,156.00
2017-09-12T06:28:37.002Z,160.00
2017-09-12T06:29:37.049Z,176.00
2017-09-12T06:30:37.085Z,176.00
2017-09-12T06:31:37.130Z,172.00
2017-09-12T06:32:37.167Z,176.00
2017-09-12T06:33:37.204Z,172.00
2017-09-12T06:34:37.271Z,180.00
2017-09-12T06:35:37.289Z,180.00
2017-09-12T06:36:37.329Z,172.00
2017-09-12T06:37:37.371Z,168.00
2017-09-12T06:38:37.409Z,168.00
2017-09-12T06:39:37.450Z,172.00
2017-09-12T06:40:37.493Z,168.00
2017-09-12T06:41:37.535Z,184.00
2017-09-12T06:42:37.576Z,184.00
2017-09-12T06:43:37.622Z,200.00
2017-09-12T06:44:37.656Z,196.00
2017-09-12T06:45:37.696Z,176.00
2017-09-12T06:46:37.737Z,172.00
2017-09-12T06:47:37.775Z,168.00
2017-09-12T06:48:37.818Z,180.00
2017-09-12T06:49:37.911Z,192.00
2017-09-12T06:50:38.040Z,184.00
2017-09-12T06:51:37.940Z,184.00
2017-09-12T06:52:37.984Z,168.00
2017-09-12T06:53:38.020Z,164.00
2017-09-12T06:54:38.061Z,184.00
2017-09-12T06:55:38.105Z,212.00
2017-09-12T06:56:38.144Z,240.00
2017-09-12T06:57:38.250Z,288.00
2017-09-12T06:58:38.293Z,428.00
2017-09-12T06:59:38.268Z,592.00
2017-09-12T07:00:38.350Z,432.00
2017-09-12T07:01:38.440Z,352.00
2017-09-12T07:02:38.389Z,588.00
2017-09-12T07:03:38.430Z,520.00
2017-09-12T07:04:38.479Z,560.00
2017-09-12T07:05:38.512Z,748.00
2017-09-12T07:06:38.643Z,432.00
2017-09-12T07:07:38.593Z,452.00
2017-09-12T07:08:38.635Z,316.00
2017-09-12T07:09:38.676Z,444.00
2017-09-12T07:10:38.718Z,428.00
2017-09-12T07:11:38.763Z,420.00
2017-09-12T07:12:38.808Z,272.00
2017-09-12T07:13:38.844Z,300.00
2017-09-12T07:14:38.890Z,176.00
2017-09-12T07:15:38.925Z,196.00
2017-09-12T07:16:38.966Z,136.00
2017-09-12T07:17:39.013Z,128.00
2017-09-12T07:18:39.065Z,116.00
2017-09-12T07:19:39.092Z,108.00
2017-09-12T07:20:39.128Z,104.00
2017-09-12T07:21:39.175Z,100.00
2017-09-12T07:22:39.213Z,96.00
2017-09-12T07:23:39.256Z,96.00
2017-09-12T07:24:39.297Z,92.00
2017-09-12T07:25:39.333Z,88.00
2017-09-12T07:26:39.378Z,88.00
2017-09-12T07:27:39.419Z,84.00
2017-09-12T07:28:39.470Z,84.00
2017-09-12T07:29:39.506Z,84.00
2017-09-12T07:30:39.542Z,84.00
2017-09-12T07:31:39.592Z,80.00
2017-09-12T07:32:39.624Z,80.00
2017-09-12T07:33:39.667Z,80.00
2017-09-12T07:34:39.709Z,84.00
2017-09-12T07:35:39.769Z,96.00
2017-09-12T07:36:39.788Z,104.00
2017-09-12T07:37:39.829Z,116.00
2017-09-12T07:38:39.875Z,160.00
2017-09-12T07:39:39.918Z,192.00
2017-09-12T07:40:39.962Z,232.00
2017-09-12T07:41:39.998Z,360.00
2017-09-12T07:42:40.037Z,500.00
2017-09-12T07:43:40.081Z,536.00
2017-09-12T07:44:40.206Z,584.00
2017-09-12T07:45:40.159Z,728.00
2017-09-12T07:46:40.204Z,1008.00
2017-09-12T07:47:40.245Z,1216.00
2017-09-12T07:48:40.306Z,852.00
2017-09-12T07:49:40.324Z,1152.00
2017-09-12T07:50:40.369Z,676.00
2017-09-12T07:51:40.407Z,596.00
2017-09-12T07:52:40.448Z,584.00
2017-09-12T07:53:40.497Z,744.00
2017-09-12T07:54:40.537Z,780.00
2017-09-12T07:55:40.578Z,852.00
2017-09-12T07:56:40.615Z,840.00
2017-09-12T07:57:40.660Z,860.00
2017-09-12T07:58:40.725Z,856.00
2017-09-12T07:59:40.750Z,668.00
2017-09-12T08:00:40.787Z,484.00
2017-09-12T08:01:40.836Z,608.00
2017-09-12T08:02:40.948Z,672.00
2017-09-12T08:03:40.935Z,740.00
2017-09-12T08:04:40.960Z,676.00
2017-09-12T08:05:40.999Z,624.00
2017-09-12T08:06:41.045Z,608.00
2017-09-12T08:07:41.099Z,620.00
2017-09-12T08:08:41.127Z,612.00
2017-09-12T08:09:41.170Z,464.00
2017-09-12T08:10:41.212Z,576.00
2017-09-12T08:11:41.255Z,644.00
2017-09-12T08:12:41.301Z,736.00
2017-09-12T08:13:41.339Z,852.00
2017-09-12T08:14:41.382Z,836.00
2017-09-12T08:15:41.428Z,528.00
2017-09-12T08:16:41.468Z,536.00
2017-09-12T08:17:41.516Z,664.00
2017-09-12T08:18:41.550Z,724.00
2017-09-12T08:19:41.593Z,708.00
2017-09-12T08:20:41.639Z,692.00
2017-09-12T08:21:41.683Z,780.00
2017-09-12T08:22:41.724Z,844.00
2017-09-12T08:23:41.768Z,908.00
2017-09-12T08:24:41.817Z,836.00
2017-09-12T08:25:41.850Z,880.00
2017-09-12T08:26:41.897Z,692.00
2017-09-12T08:27:41.937Z,660.00
2017-09-12T08:28:41.979Z,696.00
2017-09-12T08:29:42.021Z,804.00
2017-09-12T08:30:42.063Z,860.00
2017-09-12T08:31:42.110Z,968.00
2017-09-12T08:32:42.151Z,1016.00
2017-09-12T08:33:42.198Z,1068.00
2017-09-12T08:34:42.237Z,1176.00
2017-09-12T08:35:42.280Z,1548.00
2017-09-12T08:36:42.327Z,1400.00
2017-09-12T08:37:42.366Z,1236.00
2017-09-12T08:38:42.410Z,1404.00
2017-09-12T08:39:42.558Z,1828.00
2017-09-12T08:40:42.493Z,1508.00
2017-09-12T08:41:42.540Z,1236.00
2017-09-12T08:42:42.581Z,720.00
2017-09-12T08:43:42.636Z,444.00
2017-09-12T08:44:42.666Z,392.00
2017-09-12T08:45:42.712Z,356.00
2017-09-12T08:46:42.757Z,352.00
2017-09-12T08:47:42.799Z,348.00
2017-09-12T08:48:42.846Z,340.00
2017-09-12T08:49:42.884Z,300.00
2017-09-12T08:50:42.930Z,276.00
2017-09-12T08:51:42.973Z,228.00
2017-09-12T08:52:44.110Z,196.00
2017-09-12T08:53:43.059Z,184.00
2017-09-12T08:54:43.104Z,180.00
2017-09-12T08:55:43.145Z,172.00
2017-09-12T08:56:43.187Z,176.00
2017-09-12T08:57:43.236Z,172.00
2017-09-12T08:58:43.275Z,184.00
2017-09-12T08:59:43.316Z,188.00
2017-09-12T09:00:43.357Z,168.00
2017-09-12T09:01:43.403Z,168.00
2017-09-12T09:02:43.445Z,184.00
2017-09-12T09:03:43.487Z,188.00
2017-09-12T09:04:43.534Z,180.00
2017-09-12T09:05:43.575Z,204.00
2017-09-12T09:06:43.619Z,204.00
2017-09-12T09:07:43.659Z,184.00
2017-09-12T09:08:43.700Z,216.00
2017-09-12T09:09:43.752Z,184.00
2017-09-12T09:10:43.784Z,200.00
2017-09-12T09:11:43.844Z,200.00
2017-09-12T09:12:43.869Z,212.00
2017-09-12T09:13:43.917Z,196.00
2017-09-12T09:14:43.956Z,196.00
2017-09-12T09:15:43.995Z,196.00
2017-09-12T09:16:44.040Z,168.00
2017-09-12T09:17:44.082Z,140.00
2017-09-12T09:18:44.124Z,132.00
2017-09-12T09:19:44.167Z,140.00
2017-09-12T09:20:44.206Z,152.00
2017-09-12T09:21:44.250Z,152.00
2017-09-12T09:22:44.294Z,224.00
2017-09-12T09:23:44.336Z,216.00
2017-09-12T09:24:44.376Z,356.00
2017-09-12T09:25:44.420Z,360.00
2017-09-12T09:26:44.463Z,336.00
2017-09-12T09:27:44.504Z,344.00
2017-09-12T09:28:45.085Z,344.00
2017-09-12T09:29:44.586Z,312.00
2017-09-12T09:30:44.630Z,312.00
2017-09-12T09:31:44.689Z,328.00
2017-09-12T09:32:44.715Z,248.00
2017-09-12T09:33:44.756Z,300.00
2017-09-12T09:34:44.880Z,288.00
2017-09-12T09:35:44.857Z,244.00
2017-09-12T09:36:44.884Z,288.00
2017-09-12T09:37:44.926Z,316.00
2017-09-12T09:38:44.970Z,328.00
2017-09-12T09:39:45.010Z,256.00
2017-09-12T09:40:45.053Z,296.00
2017-09-12T09:41:45.096Z,244.00
2017-09-12T09:42:45.138Z,236.00
2017-09-12T09:43:45.179Z,248.00
2017-09-12T09:44:45.222Z,256.00
2017-09-12T09:45:45.261Z,248.00
2017-09-12T09:46:45.306Z,264.00
2017-09-12T09:47:45.351Z,308.00
2017-09-12T09:48:45.388Z,204.00
2017-09-12T09:49:45.433Z,204.00
2017-09-12T09:50:45.475Z,248.00
2017-09-12T09:51:45.528Z,256.00
2017-09-12T09:52:45.563Z,252.00
2017-09-12T09:53:45.601Z,216.00
2017-09-12T09:54:45.645Z,192.00
2017-09-12T09:55:45.686Z,184.00
2017-09-12T09:56:45.727Z,240.00
2017-09-12T09:57:45.774Z,264.00
2017-09-12T09:58:45.814Z,288.00
2017-09-12T09:59:45.854Z,240.00
2017-09-12T10:00:45.897Z,344.00
2017-09-12T10:01:45.940Z,336.00
2017-09-12T10:02:45.987Z,288.00
2017-09-12T10:03:46.022Z,200.00
2017-09-12T10:04:46.070Z,192.00
2017-09-12T10:05:46.107Z,176.00
2017-09-12T10:06:46.149Z,236.00
2017-09-12T10:07:46.197Z,340.00
2017-09-12T10:08:46.234Z,204.00
2017-09-12T10:09:46.288Z,204.00
2017-09-12T10:10:46.320Z,180.00
2017-09-12T10:11:46.361Z,216.00
2017-09-12T10:12:46.403Z,156.00
2017-09-12T10:13:46.446Z,196.00
2017-09-12T10:14:46.487Z,348.00
2017-09-12T10:15:46.531Z,192.00
2017-09-12T10:16:46.597Z,184.00
2017-09-12T10:17:46.650Z,156.00
2017-09-12T10:18:46.667Z,148.00
2017-09-12T10:19:46.704Z,144.00
2017-09-12T10:20:46.743Z,156.00
2017-09-12T10:21:46.831Z,164.00
2017-09-12T10:22:46.826Z,140.00
2017-09-12T10:23:46.869Z,140.00
2017-09-12T10:24:46.908Z,288.00
2017-09-12T10:25:46.978Z,176.00
2017-09-12T10:26:47.105Z,328.00
2017-09-12T10:27:47.040Z,192.00
2017-09-12T10:28:47.079Z,164.00
2017-09-12T10:29:47.119Z,148.00
2017-09-12T10:30:47.167Z,172.00
2017-09-12T10:31:47.204Z,160.00
2017-09-12T10:32:47.248Z,156.00
2017-09-12T10:33:47.306Z,324.00
2017-09-12T10:34:47.328Z,336.00
2017-09-12T10:35:47.374Z,292.00
2017-09-12T10:36:47.412Z,268.00
2017-09-12T10:37:47.453Z,320.00
2017-09-12T10:38:47.512Z,316.00
2017-09-12T10:39:47.537Z,300.00
2017-09-12T10:40:47.580Z,264.00
2017-09-12T10:41:47.623Z,220.00
2017-09-12T10:42:47.664Z,264.00
2017-09-12T10:43:47.707Z,260.00
2017-09-12T10:44:47.747Z,264.00
2017-09-12T10:45:47.790Z,284.00
2017-09-12T10:46:47.873Z,372.00
2017-09-12T10:47:47.873Z,320.00
2017-09-12T10:48:47.918Z,392.00
2017-09-12T10:49:47.957Z,412.00
2017-09-12T10:50:47.999Z,288.00
2017-09-12T10:51:48.039Z,356.00
2017-09-12T10:52:48.106Z,408.00
2017-09-12T10:53:48.125Z,332.00
2017-09-12T10:54:48.177Z,288.00
2017-09-12T10:55:48.250Z,324.00
2017-09-12T10:56:48.251Z,228.00
2017-09-12T10:57:48.292Z,252.00
2017-09-12T10:58:48.339Z,232.00
2017-09-12T10:59:48.381Z,256.00
2017-09-12T11:00:48.419Z,216.00
2017-09-12T11:01:48.465Z,236.00
2017-09-12T11:02:48.556Z,260.00
2017-09-12T11:03:48.545Z,228.00
2017-09-12T11:04:48.597Z,228.00
2017-09-12T11:05:48.631Z,224.00
2017-09-12T11:06:48.669Z,204.00
2017-09-12T11:07:48.733Z,200.00
2017-09-12T11:08:48.755Z,200.00
2017-09-12T11:09:48.800Z,180.00
2017-09-12T11:10:48.836Z,160.00
2017-09-12T11:11:48.878Z,152.00
2017-09-12T11:12:48.926Z,144.00
2017-09-12T11:13:48.977Z,156.00
2017-09-12T11:14:49.011Z,172.00
2017-09-12T11:15:49.047Z,172.00
2017-09-12T11:16:49.088Z,156.00
2017-09-12T11:17:49.132Z,144.00
2017-09-12T11:18:49.174Z,140.00
2017-09-12T11:19:49.215Z,136.00
2017-09-12T11:20:49.263Z,148.00
2017-09-12T11:21:49.298Z,140.00
2017-09-12T11:22:49.341Z,136.00
2017-09-12T11:23:49.384Z,120.00
2017-09-12T11:24:49.427Z,124.00
2017-09-12T11:25:49.497Z,136.00
2017-09-12T11:26:49.588Z,136.00
2017-09-12T11:27:49.557Z,132.00
2017-09-12T11:28:49.597Z,136.00
2017-09-12T11:29:49.634Z,144.00
2017-09-12T11:30:49.677Z,152.00
2017-09-12T11:31:49.723Z,164.00
2017-09-12T11:32:49.761Z,164.00
2017-09-12T11:33:49.804Z,184.00
2017-09-12T11:34:49.845Z,196.00
2017-09-12T11:35:49.988Z,200.00
2017-09-12T11:36:49.926Z,192.00
2017-09-12T11:37:49.968Z,196.00
2017-09-12T11:38:50.011Z,188.00
2017-09-12T11:39:50.053Z,196.00
2017-09-12T11:40:50.093Z,204.00
2017-09-12T11:41:50.204Z,188.00
2017-09-12T11:42:50.213Z,200.00
2017-09-12T11:43:50.222Z,168.00
2017-09-12T11:44:50.261Z,160.00
2017-09-12T11:45:50.307Z,172.00
2017-09-12T11:46:50.346Z,160.00
2017-09-12T11:47:50.388Z,152.00
2017-09-12T11:48:50.433Z,160.00
2017-09-12T11:49:50.475Z,160.00
2017-09-12T11:50:50.514Z,168.00
2017-09-12T11:51:50.605Z,164.00
2017-09-12T11:52:50.602Z,144.00
2017-09-12T11:53:50.645Z,136.00
2017-09-12T11:54:50.692Z,140.00
2017-09-12T11:55:50.725Z,140.00
2017-09-12T11:56:50.770Z,140.00
2017-09-12T11:57:50.810Z,140.00
2017-09-12T11:58:50.858Z,140.00
2017-09-12T11:59:50.933Z,168.00
2017-09-12T12:00:50.938Z,140.00
2017-09-12T12:01:51.055Z,140.00
2017-09-12T12:02:51.020Z,140.00
2017-09-12T12:03:51.063Z,156.00
2017-09-12T12:04:51.107Z,196.00
2017-09-12T12:05:51.146Z,172.00
2017-09-12T12:06:51.187Z,156.00
2017-09-12T12:07:51.229Z,148.00
2017-09-12T12:08:51.271Z,156.00
2017-09-12T12:09:51.399Z,152.00
2017-09-12T12:10:51.354Z,164.00
2017-09-12T12:11:51.407Z,144.00
2017-09-12T12:12:51.441Z,140.00
2017-09-12T12:13:51.482Z,132.00
2017-09-12T12:14:51.523Z,136.00
2017-09-12T12:15:51.565Z,132.00
2017-09-12T12:16:51.606Z,136.00
2017-09-12T12:17:51.649Z,140.00
2017-09-12T12:18:51.691Z,140.00
2017-09-12T12:19:51.735Z,156.00
2017-09-12T12:20:51.775Z,156.00
2017-09-12T12:21:51.815Z,220.00
2017-09-12T12:22:51.860Z,208.00
2017-09-12T12:23:51.902Z,208.00
2017-09-12T12:24:51.946Z,256.00
2017-09-12T12:25:51.984Z,308.00
2017-09-12T12:26:52.033Z,204.00
2017-09-12T12:27:52.132Z,184.00
2017-09-12T12:28:52.110Z,168.00
2017-09-12T12:29:52.154Z,180.00
2017-09-12T12:30:52.194Z,196.00
2017-09-12T12:31:52.235Z,252.00
2017-09-12T12:32:52.278Z,208.00
2017-09-12T12:33:52.321Z,244.00
2017-09-12T12:34:52.360Z,208.00
2017-09-12T12:35:52.403Z,212.00
2017-09-12T12:36:52.449Z,220.00
2017-09-12T12:37:52.486Z,184.00
2017-09-12T12:38:52.535Z,144.00
2017-09-12T12:39:52.572Z,172.00
2017-09-12T12:40:52.612Z,152.00
2017-09-12T12:41:52.655Z,144.00
2017-09-12T12:42:52.700Z,156.00
2017-09-12T12:43:52.746Z,204.00
2017-09-12T12:44:52.780Z,252.00
2017-09-12T12:45:52.829Z,220.00
2017-09-12T12:46:52.868Z,276.00
2017-09-12T12:47:52.910Z,208.00
2017-09-12T12:48:52.950Z,176.00
2017-09-12T12:49:52.991Z,152.00